sensor_id;sensor_type;location;lat;lon;timestamp;P1;durP1;ratioP1;P2;durP2;ratioP2
54201;SDS011;40108;53.152;5.844;2024-03-02T00:01:41;2.67;;;1.42;;
54201;SDS011;40108;53.152;5.844;2024-03-02T00:04:07;2.35;;;1.92;;
54201;SDS011;40108;53.152;5.844;2024-03-02T00:06:33;3.65;;;1.80;;
54201;SDS011;40108;53.152;5.844;2024-03-02T00:09:00;1.88;;;1.40;;
54201;SDS011;40108;53.152;5.844;2024-03-02T00:11:25;3.47;;;1.92;;
54201;SDS011;40108;53.152;5.844;2024-03-02T00:13:52;2.08;;;1.77;;
54201;SDS011;40108;53.152;5.844;2024-03-02T00:16:19;2.83;;;1.95;;
54201;SDS011;40108;53.152;5.844;2024-03-02T00:18:45;2.97;;;1.85;;
54201;SDS011;40108;53.152;5.844;2024-03-02T00:21:11;5.10;;;2.80;;
54201;SDS011;40108;53.152;5.844;2024-03-02T00:23:38;4.05;;;2.35;;
54201;SDS011;40108;53.152;5.844;2024-03-02T00:26:04;3.88;;;2.50;;
54201;SDS011;40108;53.152;5.844;2024-03-02T00:28:31;5.90;;;2.83;;
54201;SDS011;40108;53.152;5.844;2024-03-02T00:31:05;4.70;;;2.80;;
54201;SDS011;40108;53.152;5.844;2024-03-02T00:33:38;4.68;;;2.08;;
54201;SDS011;40108;53.152;5.844;2024-03-02T00:38:42;6.88;;;2.58;;
54201;SDS011;40108;53.152;5.844;2024-03-02T00:41:19;2.60;;;1.92;;
54201;SDS011;40108;53.152;5.844;2024-03-02T00:46:19;5.25;;;3.17;;
54201;SDS011;40108;53.152;5.844;2024-03-02T00:48:48;6.68;;;3.47;;
54201;SDS011;40108;53.152;5.844;2024-03-02T00:51:19;4.55;;;2.40;;
54201;SDS011;40108;53.152;5.844;2024-03-02T00:53:49;6.97;;;3.15;;
54201;SDS011;40108;53.152;5.844;2024-03-02T00:56:16;10.93;;;2.97;;
54201;SDS011;40108;53.152;5.844;2024-03-02T00:58:42;8.68;;;3.65;;
54201;SDS011;40108;53.152;5.844;2024-03-02T01:01:08;6.40;;;4.03;;
54201;SDS011;40108;53.152;5.844;2024-03-02T01:03:34;6.75;;;3.67;;
54201;SDS011;40108;53.152;5.844;2024-03-02T01:06:00;4.35;;;2.70;;
54201;SDS011;40108;53.152;5.844;2024-03-02T01:08:26;3.63;;;2.25;;
54201;SDS011;40108;53.152;5.844;2024-03-02T01:10:51;2.95;;;2.08;;
54201;SDS011;40108;53.152;5.844;2024-03-02T01:13:17;1.70;;;1.55;;
54201;SDS011;40108;53.152;5.844;2024-03-02T01:15:43;4.50;;;2.20;;
54201;SDS011;40108;53.152;5.844;2024-03-02T01:18:09;4.25;;;2.00;;
54201;SDS011;40108;53.152;5.844;2024-03-02T01:20:34;2.75;;;1.60;;
54201;SDS011;40108;53.152;5.844;2024-03-02T01:23:00;1.83;;;1.50;;
54201;SDS011;40108;53.152;5.844;2024-03-02T01:25:26;3.75;;;1.67;;
54201;SDS011;40108;53.152;5.844;2024-03-02T01:27:51;2.60;;;1.50;;
54201;SDS011;40108;53.152;5.844;2024-03-02T01:30:17;2.90;;;1.23;;
54201;SDS011;40108;53.152;5.844;2024-03-02T01:32:43;2.55;;;1.02;;
54201;SDS011;40108;53.152;5.844;2024-03-02T01:35:08;2.55;;;1.30;;
54201;SDS011;40108;53.152;5.844;2024-03-02T01:37:34;1.30;;;1.20;;
54201;SDS011;40108;53.152;5.844;2024-03-02T01:40:00;3.22;;;1.58;;
54201;SDS011;40108;53.152;5.844;2024-03-02T01:42:25;2.20;;;1.40;;
54201;SDS011;40108;53.152;5.844;2024-03-02T01:44:51;3.55;;;1.63;;
54201;SDS011;40108;53.152;5.844;2024-03-02T01:47:17;2.25;;;1.42;;
54201;SDS011;40108;53.152;5.844;2024-03-02T01:49:43;2.63;;;1.27;;
54201;SDS011;40108;53.152;5.844;2024-03-02T01:52:08;2.05;;;1.48;;
54201;SDS011;40108;53.152;5.844;2024-03-02T01:54:34;1.70;;;1.13;;
54201;SDS011;40108;53.152;5.844;2024-03-02T01:57:00;1.58;;;0.95;;
54201;SDS011;40108;53.152;5.844;2024-03-02T01:59:25;4.03;;;1.30;;
54201;SDS011;40108;53.152;5.844;2024-03-02T02:01:52;2.10;;;1.08;;
54201;SDS011;40108;53.152;5.844;2024-03-02T02:04:17;2.25;;;1.38;;
54201;SDS011;40108;53.152;5.844;2024-03-02T02:06:46;2.00;;;1.38;;
54201;SDS011;40108;53.152;5.844;2024-03-02T02:09:12;2.08;;;1.30;;
54201;SDS011;40108;53.152;5.844;2024-03-02T02:11:37;1.67;;;1.50;;
54201;SDS011;40108;53.152;5.844;2024-03-02T02:14:03;2.30;;;1.42;;
54201;SDS011;40108;53.152;5.844;2024-03-02T02:16:29;1.27;;;0.98;;
54201;SDS011;40108;53.152;5.844;2024-03-02T02:18:55;2.70;;;1.30;;
54201;SDS011;40108;53.152;5.844;2024-03-02T02:21:23;2.00;;;1.58;;
54201;SDS011;40108;53.152;5.844;2024-03-02T02:23:49;1.33;;;1.02;;
54201;SDS011;40108;53.152;5.844;2024-03-02T02:26:15;2.05;;;1.27;;
54201;SDS011;40108;53.152;5.844;2024-03-02T02:28:41;1.85;;;1.08;;
54201;SDS011;40108;53.152;5.844;2024-03-02T02:31:15;2.47;;;1.10;;
54201;SDS011;40108;53.152;5.844;2024-03-02T02:33:41;2.13;;;1.30;;
54201;SDS011;40108;53.152;5.844;2024-03-02T02:36:08;2.80;;;1.10;;
54201;SDS011;40108;53.152;5.844;2024-03-02T02:38:36;2.25;;;1.33;;
54201;SDS011;40108;53.152;5.844;2024-03-02T02:41:05;3.63;;;1.40;;
54201;SDS011;40108;53.152;5.844;2024-03-02T02:43:31;1.73;;;1.00;;
54201;SDS011;40108;53.152;5.844;2024-03-02T02:45:56;2.55;;;0.98;;
54201;SDS011;40108;53.152;5.844;2024-03-02T02:48:22;2.78;;;1.30;;
54201;SDS011;40108;53.152;5.844;2024-03-02T02:50:48;2.60;;;1.17;;
54201;SDS011;40108;53.152;5.844;2024-03-02T02:53:13;3.95;;;1.42;;
54201;SDS011;40108;53.152;5.844;2024-03-02T02:55:39;3.15;;;1.30;;
54201;SDS011;40108;53.152;5.844;2024-03-02T02:58:14;2.22;;;1.30;;
54201;SDS011;40108;53.152;5.844;2024-03-02T03:00:40;1.85;;;1.13;;
54201;SDS011;40108;53.152;5.844;2024-03-02T03:03:05;1.95;;;1.13;;
54201;SDS011;40108;53.152;5.844;2024-03-02T03:05:31;4.25;;;1.20;;
54201;SDS011;40108;53.152;5.844;2024-03-02T03:07:57;2.88;;;1.13;;
54201;SDS011;40108;53.152;5.844;2024-03-02T03:10:22;1.45;;;0.90;;
54201;SDS011;40108;53.152;5.844;2024-03-02T03:12:51;2.60;;;1.25;;
54201;SDS011;40108;53.152;5.844;2024-03-02T03:15:16;1.70;;;1.20;;
54201;SDS011;40108;53.152;5.844;2024-03-02T03:17:42;3.97;;;1.52;;
54201;SDS011;40108;53.152;5.844;2024-03-02T03:20:08;2.30;;;1.20;;
54201;SDS011;40108;53.152;5.844;2024-03-02T03:22:40;3.78;;;1.70;;
54201;SDS011;40108;53.152;5.844;2024-03-02T03:25:06;1.55;;;1.08;;
54201;SDS011;40108;53.152;5.844;2024-03-02T03:27:34;2.92;;;1.48;;
54201;SDS011;40108;53.152;5.844;2024-03-02T03:30:01;2.40;;;1.27;;
54201;SDS011;40108;53.152;5.844;2024-03-02T03:32:27;3.55;;;1.30;;
54201;SDS011;40108;53.152;5.844;2024-03-02T03:34:53;2.42;;;1.20;;
54201;SDS011;40108;53.152;5.844;2024-03-02T03:37:19;1.85;;;1.02;;
54201;SDS011;40108;53.152;5.844;2024-03-02T03:39:44;2.25;;;1.15;;
54201;SDS011;40108;53.152;5.844;2024-03-02T03:42:10;1.35;;;1.02;;
54201;SDS011;40108;53.152;5.844;2024-03-02T03:44:36;1.70;;;1.08;;
54201;SDS011;40108;53.152;5.844;2024-03-02T03:47:02;1.63;;;1.23;;
54201;SDS011;40108;53.152;5.844;2024-03-02T03:49:27;1.92;;;1.15;;
54201;SDS011;40108;53.152;5.844;2024-03-02T03:51:53;1.55;;;0.82;;
54201;SDS011;40108;53.152;5.844;2024-03-02T03:54:19;3.10;;;1.20;;
54201;SDS011;40108;53.152;5.844;2024-03-02T03:56:44;2.25;;;0.90;;
54201;SDS011;40108;53.152;5.844;2024-03-02T03:59:10;1.40;;;0.90;;
54201;SDS011;40108;53.152;5.844;2024-03-02T04:01:36;3.03;;;0.90;;
54201;SDS011;40108;53.152;5.844;2024-03-02T04:04:02;1.60;;;1.00;;
54201;SDS011;40108;53.152;5.844;2024-03-02T04:06:28;2.38;;;1.02;;
54201;SDS011;40108;53.152;5.844;2024-03-02T04:08:54;1.13;;;0.82;;
54201;SDS011;40108;53.152;5.844;2024-03-02T04:11:20;2.22;;;1.00;;
54201;SDS011;40108;53.152;5.844;2024-03-02T04:13:45;2.10;;;0.93;;
54201;SDS011;40108;53.152;5.844;2024-03-02T04:16:11;1.98;;;0.60;;
54201;SDS011;40108;53.152;5.844;2024-03-02T04:18:37;0.70;;;0.40;;
54201;SDS011;40108;53.152;5.844;2024-03-02T04:21:04;0.30;;;0.30;;
54201;SDS011;40108;53.152;5.844;2024-03-02T04:23:30;0.82;;;0.50;;
54201;SDS011;40108;53.152;5.844;2024-03-02T04:25:56;2.33;;;0.30;;
54201;SDS011;40108;53.152;5.844;2024-03-02T04:28:21;0.30;;;0.20;;
54201;SDS011;40108;53.152;5.844;2024-03-02T04:30:47;0.95;;;0.35;;
54201;SDS011;40108;53.152;5.844;2024-03-02T04:33:13;0.82;;;0.30;;
54201;SDS011;40108;53.152;5.844;2024-03-02T04:35:39;1.13;;;0.30;;
54201;SDS011;40108;53.152;5.844;2024-03-02T04:38:04;1.08;;;0.30;;
54201;SDS011;40108;53.152;5.844;2024-03-02T04:40:30;0.32;;;0.30;;
54201;SDS011;40108;53.152;5.844;2024-03-02T04:42:57;0.20;;;0.20;;
54201;SDS011;40108;53.152;5.844;2024-03-02T04:45:24;1.15;;;0.28;;
54201;SDS011;40108;53.152;5.844;2024-03-02T04:47:50;0.30;;;0.30;;
54201;SDS011;40108;53.152;5.844;2024-03-02T04:50:15;0.80;;;0.40;;
54201;SDS011;40108;53.152;5.844;2024-03-02T04:52:41;0.22;;;0.20;;
54201;SDS011;40108;53.152;5.844;2024-03-02T04:55:06;1.38;;;0.40;;
54201;SDS011;40108;53.152;5.844;2024-03-02T04:57:44;0.20;;;0.10;;
54201;SDS011;40108;53.152;5.844;2024-03-02T05:00:11;0.28;;;0.28;;
54201;SDS011;40108;53.152;5.844;2024-03-02T05:02:37;0.38;;;0.30;;
54201;SDS011;40108;53.152;5.844;2024-03-02T05:05:03;1.77;;;0.32;;
54201;SDS011;40108;53.152;5.844;2024-03-02T05:07:29;1.42;;;0.40;;
54201;SDS011;40108;53.152;5.844;2024-03-02T05:09:55;1.30;;;0.50;;
54201;SDS011;40108;53.152;5.844;2024-03-02T05:12:20;0.70;;;0.30;;
54201;SDS011;40108;53.152;5.844;2024-03-02T05:15:05;0.98;;;0.47;;
54201;SDS011;40108;53.152;5.844;2024-03-02T05:17:34;0.20;;;0.20;;
54201;SDS011;40108;53.152;5.844;2024-03-02T05:19:59;2.05;;;0.60;;
54201;SDS011;40108;53.152;5.844;2024-03-02T05:22:25;0.50;;;0.30;;
54201;SDS011;40108;53.152;5.844;2024-03-02T05:24:51;0.63;;;0.40;;
54201;SDS011;40108;53.152;5.844;2024-03-02T05:27:16;1.20;;;0.30;;
54201;SDS011;40108;53.152;5.844;2024-03-02T05:29:42;1.77;;;0.40;;
54201;SDS011;40108;53.152;5.844;2024-03-02T05:32:07;1.25;;;0.40;;
54201;SDS011;40108;53.152;5.844;2024-03-02T05:34:33;1.13;;;0.30;;
54201;SDS011;40108;53.152;5.844;2024-03-02T05:37:00;0.28;;;0.28;;
54201;SDS011;40108;53.152;5.844;2024-03-02T05:39:26;0.73;;;0.35;;
54201;SDS011;40108;53.152;5.844;2024-03-02T05:41:52;1.85;;;0.60;;
54201;SDS011;40108;53.152;5.844;2024-03-02T05:44:18;1.33;;;0.40;;
54201;SDS011;40108;53.152;5.844;2024-03-02T05:46:44;1.98;;;0.30;;
54201;SDS011;40108;53.152;5.844;2024-03-02T05:49:10;1.92;;;0.45;;
54201;SDS011;40108;53.152;5.844;2024-03-02T05:51:36;0.80;;;0.40;;
54201;SDS011;40108;53.152;5.844;2024-03-02T05:54:02;0.98;;;0.32;;
54201;SDS011;40108;53.152;5.844;2024-03-02T05:56:28;1.58;;;0.22;;
54201;SDS011;40108;53.152;5.844;2024-03-02T05:58:53;0.30;;;0.30;;
54201;SDS011;40108;53.152;5.844;2024-03-02T06:01:37;0.98;;;0.22;;
54201;SDS011;40108;53.152;5.844;2024-03-02T06:04:03;3.38;;;0.73;;
54201;SDS011;40108;53.152;5.844;2024-03-02T06:06:29;1.42;;;0.30;;
54201;SDS011;40108;53.152;5.844;2024-03-02T06:08:55;1.83;;;0.30;;
54201;SDS011;40108;53.152;5.844;2024-03-02T06:11:21;0.63;;;0.30;;
54201;SDS011;40108;53.152;5.844;2024-03-02T06:13:47;1.15;;;0.50;;
54201;SDS011;40108;53.152;5.844;2024-03-02T06:16:12;0.68;;;0.30;;
54201;SDS011;40108;53.152;5.844;2024-03-02T06:18:38;2.75;;;0.35;;
54201;SDS011;40108;53.152;5.844;2024-03-02T06:21:04;0.77;;;0.22;;
54201;SDS011;40108;53.152;5.844;2024-03-02T06:23:30;2.13;;;0.43;;
54201;SDS011;40108;53.152;5.844;2024-03-02T06:25:55;1.20;;;0.60;;
54201;SDS011;40108;53.152;5.844;2024-03-02T06:28:21;1.30;;;0.40;;
54201;SDS011;40108;53.152;5.844;2024-03-02T06:30:47;1.55;;;0.55;;
54201;SDS011;40108;53.152;5.844;2024-03-02T06:33:13;1.67;;;0.50;;
54201;SDS011;40108;53.152;5.844;2024-03-02T06:35:38;0.55;;;0.50;;
54201;SDS011;40108;53.152;5.844;2024-03-02T06:38:04;0.70;;;0.70;;
54201;SDS011;40108;53.152;5.844;2024-03-02T06:40:30;1.65;;;0.80;;
54201;SDS011;40108;53.152;5.844;2024-03-02T06:42:55;0.80;;;0.60;;
54201;SDS011;40108;53.152;5.844;2024-03-02T06:45:21;2.47;;;1.65;;
54201;SDS011;40108;53.152;5.844;2024-03-02T06:47:47;2.03;;;1.80;;
54201;SDS011;40108;53.152;5.844;2024-03-02T06:50:12;2.70;;;2.50;;
54201;SDS011;40108;53.152;5.844;2024-03-02T06:52:38;8.80;;;3.30;;
54201;SDS011;40108;53.152;5.844;2024-03-02T06:55:04;5.63;;;2.95;;
54201;SDS011;40108;53.152;5.844;2024-03-02T06:57:30;4.30;;;2.80;;
54201;SDS011;40108;53.152;5.844;2024-03-02T06:59:56;2.58;;;1.90;;
54201;SDS011;40108;53.152;5.844;2024-03-02T07:02:24;2.42;;;2.22;;
54201;SDS011;40108;53.152;5.844;2024-03-02T07:04:52;2.75;;;2.28;;
54201;SDS011;40108;53.152;5.844;2024-03-02T07:07:18;2.78;;;1.70;;
54201;SDS011;40108;53.152;5.844;2024-03-02T07:09:44;2.95;;;1.77;;
54201;SDS011;40108;53.152;5.844;2024-03-02T07:12:09;2.08;;;1.80;;
54201;SDS011;40108;53.152;5.844;2024-03-02T07:14:35;5.25;;;2.00;;
54201;SDS011;40108;53.152;5.844;2024-03-02T07:17:36;3.00;;;1.55;;
54201;SDS011;40108;53.152;5.844;2024-03-02T07:20:02;1.48;;;1.30;;
54201;SDS011;40108;53.152;5.844;2024-03-02T07:22:31;1.77;;;0.93;;
54201;SDS011;40108;53.152;5.844;2024-03-02T07:24:58;2.80;;;1.17;;
54201;SDS011;40108;53.152;5.844;2024-03-02T07:27:23;2.13;;;1.40;;
54201;SDS011;40108;53.152;5.844;2024-03-02T07:29:49;2.22;;;1.70;;
54201;SDS011;40108;53.152;5.844;2024-03-02T07:32:15;2.50;;;1.55;;
54201;SDS011;40108;53.152;5.844;2024-03-02T07:34:40;2.53;;;2.05;;
54201;SDS011;40108;53.152;5.844;2024-03-02T07:37:06;3.58;;;3.08;;
54201;SDS011;40108;53.152;5.844;2024-03-02T07:39:32;2.53;;;2.30;;
54201;SDS011;40108;53.152;5.844;2024-03-02T07:41:58;1.67;;;1.58;;
54201;SDS011;40108;53.152;5.844;2024-03-02T07:44:24;2.58;;;1.80;;
54201;SDS011;40108;53.152;5.844;2024-03-02T07:46:50;2.72;;;1.30;;
54201;SDS011;40108;53.152;5.844;2024-03-02T07:49:16;1.35;;;1.10;;
54201;SDS011;40108;53.152;5.844;2024-03-02T07:51:42;5.03;;;3.42;;
54201;SDS011;40108;53.152;5.844;2024-03-02T07:54:08;2.70;;;1.70;;
54201;SDS011;40108;53.152;5.844;2024-03-02T07:56:33;2.65;;;2.45;;
54201;SDS011;40108;53.152;5.844;2024-03-02T07:59:00;1.80;;;1.00;;
54201;SDS011;40108;53.152;5.844;2024-03-02T08:01:30;2.03;;;1.30;;
54201;SDS011;40108;53.152;5.844;2024-03-02T08:03:57;3.80;;;2.65;;
54201;SDS011;40108;53.152;5.844;2024-03-02T08:06:26;3.08;;;1.60;;
54201;SDS011;40108;53.152;5.844;2024-03-02T08:08:53;3.97;;;1.42;;
54201;SDS011;40108;53.152;5.844;2024-03-02T08:11:20;2.58;;;1.80;;
54201;SDS011;40108;53.152;5.844;2024-03-02T08:13:46;1.60;;;0.93;;
54201;SDS011;40108;53.152;5.844;2024-03-02T08:16:12;0.68;;;0.30;;
54201;SDS011;40108;53.152;5.844;2024-03-02T08:18:37;3.22;;;0.77;;
54201;SDS011;40108;53.152;5.844;2024-03-02T08:21:04;1.73;;;0.68;;
54201;SDS011;40108;53.152;5.844;2024-03-02T08:23:29;3.55;;;0.82;;
54201;SDS011;40108;53.152;5.844;2024-03-02T08:25:56;1.90;;;0.80;;
54201;SDS011;40108;53.152;5.844;2024-03-02T08:28:22;1.10;;;0.50;;
54201;SDS011;40108;53.152;5.844;2024-03-02T08:30:48;1.58;;;0.60;;
54201;SDS011;40108;53.152;5.844;2024-03-02T08:33:13;3.42;;;0.70;;
54201;SDS011;40108;53.152;5.844;2024-03-02T08:35:39;3.28;;;1.25;;
54201;SDS011;40108;53.152;5.844;2024-03-02T08:38:05;1.95;;;0.68;;
54201;SDS011;40108;53.152;5.844;2024-03-02T08:40:30;1.70;;;0.57;;
54201;SDS011;40108;53.152;5.844;2024-03-02T08:42:56;1.70;;;1.00;;
54201;SDS011;40108;53.152;5.844;2024-03-02T08:45:22;0.73;;;0.40;;
54201;SDS011;40108;53.152;5.844;2024-03-02T08:47:48;1.60;;;0.60;;
54201;SDS011;40108;53.152;5.844;2024-03-02T08:50:13;4.72;;;0.70;;
54201;SDS011;40108;53.152;5.844;2024-03-02T08:52:39;2.30;;;0.73;;
54201;SDS011;40108;53.152;5.844;2024-03-02T08:55:05;2.60;;;0.55;;
54201;SDS011;40108;53.152;5.844;2024-03-02T08:57:32;1.40;;;0.63;;
54201;SDS011;40108;53.152;5.844;2024-03-02T08:59:58;2.72;;;1.42;;
54201;SDS011;40108;53.152;5.844;2024-03-02T09:02:25;2.38;;;1.33;;
54201;SDS011;40108;53.152;5.844;2024-03-02T09:04:50;2.13;;;0.90;;
54201;SDS011;40108;53.152;5.844;2024-03-02T09:07:16;4.78;;;1.05;;
54201;SDS011;40108;53.152;5.844;2024-03-02T09:09:42;3.33;;;0.80;;
54201;SDS011;40108;53.152;5.844;2024-03-02T09:12:08;3.17;;;0.88;;
54201;SDS011;40108;53.152;5.844;2024-03-02T09:14:34;3.22;;;0.85;;
54201;SDS011;40108;53.152;5.844;2024-03-02T09:17:02;2.53;;;0.73;;
54201;SDS011;40108;53.152;5.844;2024-03-02T09:19:28;1.27;;;0.60;;
54201;SDS011;40108;53.152;5.844;2024-03-02T09:21:54;1.00;;;0.47;;
54201;SDS011;40108;53.152;5.844;2024-03-02T09:24:21;0.40;;;0.40;;
54201;SDS011;40108;53.152;5.844;2024-03-02T09:26:47;2.88;;;0.60;;
54201;SDS011;40108;53.152;5.844;2024-03-02T09:29:13;1.60;;;0.40;;
54201;SDS011;40108;53.152;5.844;2024-03-02T09:31:39;1.27;;;0.60;;
54201;SDS011;40108;53.152;5.844;2024-03-02T09:34:06;1.88;;;0.75;;
54201;SDS011;40108;53.152;5.844;2024-03-02T09:36:32;2.75;;;0.57;;
54201;SDS011;40108;53.152;5.844;2024-03-02T09:38:58;2.58;;;0.70;;
54201;SDS011;40108;53.152;5.844;2024-03-02T09:41:24;1.27;;;0.40;;
54201;SDS011;40108;53.152;5.844;2024-03-02T09:43:50;2.92;;;0.45;;
54201;SDS011;40108;53.152;5.844;2024-03-02T09:46:16;1.63;;;0.40;;
54201;SDS011;40108;53.152;5.844;2024-03-02T09:48:43;5.03;;;0.75;;
54201;SDS011;40108;53.152;5.844;2024-03-02T09:51:09;1.85;;;0.52;;
54201;SDS011;40108;53.152;5.844;2024-03-02T09:53:36;3.05;;;0.55;;
54201;SDS011;40108;53.152;5.844;2024-03-02T09:56:02;1.92;;;0.40;;
54201;SDS011;40108;53.152;5.844;2024-03-02T09:58:30;1.08;;;0.32;;
54201;SDS011;40108;53.152;5.844;2024-03-02T10:00:55;2.20;;;0.70;;
54201;SDS011;40108;53.152;5.844;2024-03-02T10:03:24;2.03;;;0.43;;
54201;SDS011;40108;53.152;5.844;2024-03-02T10:05:50;1.35;;;0.30;;
54201;SDS011;40108;53.152;5.844;2024-03-02T10:08:16;1.95;;;0.32;;
54201;SDS011;40108;53.152;5.844;2024-03-02T10:10:42;2.92;;;0.40;;
54201;SDS011;40108;53.152;5.844;2024-03-02T10:13:12;2.30;;;0.50;;
54201;SDS011;40108;53.152;5.844;2024-03-02T10:15:39;2.67;;;0.40;;
54201;SDS011;40108;53.152;5.844;2024-03-02T10:18:09;1.92;;;0.60;;
54201;SDS011;40108;53.152;5.844;2024-03-02T10:20:42;3.45;;;0.55;;
54201;SDS011;40108;53.152;5.844;2024-03-02T10:23:14;1.42;;;0.40;;
54201;SDS011;40108;53.152;5.844;2024-03-02T10:25:41;4.15;;;0.70;;
54201;SDS011;40108;53.152;5.844;2024-03-02T10:28:08;1.95;;;0.40;;
54201;SDS011;40108;53.152;5.844;2024-03-02T10:30:34;6.28;;;0.70;;
54201;SDS011;40108;53.152;5.844;2024-03-02T10:33:03;1.92;;;0.57;;
54201;SDS011;40108;53.152;5.844;2024-03-02T10:35:31;1.10;;;0.35;;
54201;SDS011;40108;53.152;5.844;2024-03-02T10:38:01;2.15;;;0.60;;
54201;SDS011;40108;53.152;5.844;2024-03-02T10:42:56;1.85;;;0.47;;
54201;SDS011;40108;53.152;5.844;2024-03-02T10:45:23;2.97;;;0.80;;
54201;SDS011;40108;53.152;5.844;2024-03-02T10:47:50;1.55;;;0.80;;
54201;SDS011;40108;53.152;5.844;2024-03-02T10:50:16;1.60;;;0.65;;
54201;SDS011;40108;53.152;5.844;2024-03-02T10:52:42;2.90;;;1.10;;
54201;SDS011;40108;53.152;5.844;2024-03-02T10:55:11;3.50;;;0.93;;
54201;SDS011;40108;53.152;5.844;2024-03-02T11:00:19;2.25;;;0.80;;
54201;SDS011;40108;53.152;5.844;2024-03-02T11:02:57;4.75;;;1.10;;
54201;SDS011;40108;53.152;5.844;2024-03-02T11:05:35;4.03;;;1.35;;
54201;SDS011;40108;53.152;5.844;2024-03-02T11:08:07;2.95;;;1.35;;
54201;SDS011;40108;53.152;5.844;2024-03-02T11:10:35;3.38;;;1.70;;
54201;SDS011;40108;53.152;5.844;2024-03-02T11:13:31;5.20;;;1.27;;
54201;SDS011;40108;53.152;5.844;2024-03-02T11:16:05;3.65;;;1.30;;
54201;SDS011;40108;53.152;5.844;2024-03-02T11:18:35;2.65;;;1.00;;
54201;SDS011;40108;53.152;5.844;2024-03-02T11:21:02;1.80;;;0.68;;
54201;SDS011;40108;53.152;5.844;2024-03-02T11:23:32;2.53;;;0.75;;
54201;SDS011;40108;53.152;5.844;2024-03-02T11:26:20;3.03;;;0.90;;
54201;SDS011;40108;53.152;5.844;2024-03-02T11:28:47;4.72;;;0.82;;
54201;SDS011;40108;53.152;5.844;2024-03-02T11:31:13;3.47;;;1.20;;
54201;SDS011;40108;53.152;5.844;2024-03-02T11:33:38;2.88;;;1.35;;
54201;SDS011;40108;53.152;5.844;2024-03-02T11:36:07;2.42;;;1.10;;
54201;SDS011;40108;53.152;5.844;2024-03-02T11:38:34;5.78;;;1.40;;
54201;SDS011;40108;53.152;5.844;2024-03-02T11:41:01;3.28;;;1.10;;
54201;SDS011;40108;53.152;5.844;2024-03-02T11:43:28;2.55;;;0.80;;
54201;SDS011;40108;53.152;5.844;2024-03-02T11:46:01;4.22;;;0.70;;
54201;SDS011;40108;53.152;5.844;2024-03-02T11:48:32;2.17;;;0.57;;
54201;SDS011;40108;53.152;5.844;2024-03-02T11:51:00;3.03;;;0.85;;
54201;SDS011;40108;53.152;5.844;2024-03-02T11:53:26;2.70;;;0.93;;
54201;SDS011;40108;53.152;5.844;2024-03-02T11:55:57;3.38;;;1.00;;
54201;SDS011;40108;53.152;5.844;2024-03-02T11:58:24;2.35;;;1.30;;
54201;SDS011;40108;53.152;5.844;2024-03-02T12:00:51;3.33;;;1.33;;
54201;SDS011;40108;53.152;5.844;2024-03-02T12:03:17;5.00;;;1.58;;
54201;SDS011;40108;53.152;5.844;2024-03-02T12:05:45;3.53;;;1.40;;
54201;SDS011;40108;53.152;5.844;2024-03-02T12:08:14;3.70;;;1.90;;
54201;SDS011;40108;53.152;5.844;2024-03-02T12:10:40;4.22;;;1.80;;
54201;SDS011;40108;53.152;5.844;2024-03-02T12:13:06;6.32;;;1.77;;
54201;SDS011;40108;53.152;5.844;2024-03-02T12:15:36;2.95;;;1.30;;
54201;SDS011;40108;53.152;5.844;2024-03-02T12:18:03;4.78;;;1.33;;
54201;SDS011;40108;53.152;5.844;2024-03-02T12:20:30;4.07;;;2.10;;
54201;SDS011;40108;53.152;5.844;2024-03-02T12:23:00;4.43;;;1.00;;
54201;SDS011;40108;53.152;5.844;2024-03-02T12:25:29;4.30;;;1.17;;
54201;SDS011;40108;53.152;5.844;2024-03-02T12:27:56;2.28;;;0.75;;
54201;SDS011;40108;53.152;5.844;2024-03-02T12:30:24;3.42;;;0.88;;
54201;SDS011;40108;53.152;5.844;2024-03-02T12:32:54;5.07;;;0.95;;
54201;SDS011;40108;53.152;5.844;2024-03-02T12:35:20;4.53;;;0.98;;
54201;SDS011;40108;53.152;5.844;2024-03-02T12:37:49;4.82;;;1.30;;
54201;SDS011;40108;53.152;5.844;2024-03-02T12:40:16;5.90;;;0.95;;
54201;SDS011;40108;53.152;5.844;2024-03-02T12:42:43;3.25;;;0.75;;
54201;SDS011;40108;53.152;5.844;2024-03-02T12:45:10;3.38;;;1.17;;
54201;SDS011;40108;53.152;5.844;2024-03-02T12:47:37;2.97;;;0.90;;
54201;SDS011;40108;53.152;5.844;2024-03-02T12:50:04;2.63;;;1.00;;
54201;SDS011;40108;53.152;5.844;2024-03-02T12:52:30;3.33;;;1.23;;
54201;SDS011;40108;53.152;5.844;2024-03-02T12:54:58;5.13;;;1.48;;
54201;SDS011;40108;53.152;5.844;2024-03-02T12:57:28;4.18;;;0.98;;
54201;SDS011;40108;53.152;5.844;2024-03-02T13:00:04;4.88;;;1.33;;
54201;SDS011;40108;53.152;5.844;2024-03-02T13:02:34;4.00;;;1.20;;
54201;SDS011;40108;53.152;5.844;2024-03-02T13:05:10;3.60;;;0.95;;
54201;SDS011;40108;53.152;5.844;2024-03-02T13:07:36;4.63;;;1.23;;
54201;SDS011;40108;53.152;5.844;2024-03-02T13:10:03;3.80;;;0.90;;
54201;SDS011;40108;53.152;5.844;2024-03-02T13:12:30;3.67;;;1.25;;
54201;SDS011;40108;53.152;5.844;2024-03-02T13:14:57;4.70;;;1.15;;
54201;SDS011;40108;53.152;5.844;2024-03-02T13:17:24;3.88;;;0.88;;
54201;SDS011;40108;53.152;5.844;2024-03-02T13:19:53;3.13;;;0.82;;
54201;SDS011;40108;53.152;5.844;2024-03-02T13:22:23;2.60;;;0.90;;
54201;SDS011;40108;53.152;5.844;2024-03-02T13:24:49;3.03;;;1.33;;
54201;SDS011;40108;53.152;5.844;2024-03-02T13:27:15;3.92;;;0.75;;
54201;SDS011;40108;53.152;5.844;2024-03-02T13:29:44;3.45;;;1.27;;
54201;SDS011;40108;53.152;5.844;2024-03-02T13:32:16;3.20;;;0.68;;
54201;SDS011;40108;53.152;5.844;2024-03-02T13:34:42;4.18;;;1.13;;
54201;SDS011;40108;53.152;5.844;2024-03-02T13:37:08;3.70;;;0.80;;
54201;SDS011;40108;53.152;5.844;2024-03-02T13:39:34;3.13;;;1.00;;
54201;SDS011;40108;53.152;5.844;2024-03-02T13:42:06;3.47;;;1.15;;
54201;SDS011;40108;53.152;5.844;2024-03-02T13:44:36;4.57;;;1.05;;
54201;SDS011;40108;53.152;5.844;2024-03-02T13:47:02;3.33;;;0.90;;
54201;SDS011;40108;53.152;5.844;2024-03-02T13:49:29;2.25;;;0.70;;
54201;SDS011;40108;53.152;5.844;2024-03-02T13:52:00;4.18;;;0.77;;
54201;SDS011;40108;53.152;5.844;2024-03-02T13:54:28;1.27;;;0.50;;
54201;SDS011;40108;53.152;5.844;2024-03-02T13:56:55;4.78;;;1.08;;
54201;SDS011;40108;53.152;5.844;2024-03-02T13:59:23;2.75;;;0.93;;
54201;SDS011;40108;53.152;5.844;2024-03-02T14:01:49;5.25;;;1.13;;
54201;SDS011;40108;53.152;5.844;2024-03-02T14:04:15;5.13;;;2.60;;
54201;SDS011;40108;53.152;5.844;2024-03-02T14:06:40;3.33;;;1.23;;
54201;SDS011;40108;53.152;5.844;2024-03-02T14:09:08;4.93;;;1.48;;
54201;SDS011;40108;53.152;5.844;2024-03-02T14:11:34;5.05;;;0.80;;
54201;SDS011;40108;53.152;5.844;2024-03-02T14:14:00;3.22;;;0.85;;
54201;SDS011;40108;53.152;5.844;2024-03-02T14:16:27;1.45;;;0.68;;
54201;SDS011;40108;53.152;5.844;2024-03-02T14:18:53;2.88;;;0.60;;
54201;SDS011;40108;53.152;5.844;2024-03-02T14:21:19;5.05;;;1.08;;
54201;SDS011;40108;53.152;5.844;2024-03-02T14:23:44;1.80;;;0.55;;
54201;SDS011;40108;53.152;5.844;2024-03-02T14:26:10;3.42;;;0.73;;
54201;SDS011;40108;53.152;5.844;2024-03-02T14:28:36;1.92;;;0.50;;
54201;SDS011;40108;53.152;5.844;2024-03-02T14:31:01;2.90;;;0.60;;
54201;SDS011;40108;53.152;5.844;2024-03-02T14:33:27;2.40;;;0.93;;
54201;SDS011;40108;53.152;5.844;2024-03-02T14:35:53;2.20;;;0.90;;
54201;SDS011;40108;53.152;5.844;2024-03-02T14:38:19;4.03;;;0.93;;
54201;SDS011;40108;53.152;5.844;2024-03-02T14:40:45;1.45;;;0.95;;
54201;SDS011;40108;53.152;5.844;2024-03-02T14:43:11;1.52;;;0.77;;
54201;SDS011;40108;53.152;5.844;2024-03-02T14:45:36;1.15;;;0.63;;
54201;SDS011;40108;53.152;5.844;2024-03-02T14:48:02;3.47;;;0.70;;
54201;SDS011;40108;53.152;5.844;2024-03-02T14:50:29;2.25;;;0.60;;
54201;SDS011;40108;53.152;5.844;2024-03-02T14:52:54;1.63;;;0.55;;
54201;SDS011;40108;53.152;5.844;2024-03-02T14:55:22;1.70;;;0.85;;
54201;SDS011;40108;53.152;5.844;2024-03-02T14:57:49;3.75;;;0.85;;